createdAt,value
2022-08-03T00:00:20.512Z,15.09
2022-08-03T00:01:20.456Z,15.07
2022-08-03T00:02:20.464Z,15.04
2022-08-03T00:03:20.489Z,15.03
2022-08-03T00:04:20.420Z,14.95
2022-08-03T00:05:20.415Z,15.11
2022-08-03T00:06:20.403Z,15.07
2022-08-03T00:07:20.416Z,15.05
2022-08-03T00:08:20.389Z,14.98
2022-08-03T00:09:20.384Z,14.98
2022-08-03T00:10:20.377Z,14.97
2022-08-03T00:11:20.350Z,15.13
2022-08-03T00:12:20.337Z,15.11
2022-08-03T00:13:20.338Z,15.05
2022-08-03T00:14:20.319Z,15.07
2022-08-03T00:15:20.310Z,15.09
2022-08-03T00:16:20.292Z,15.00
2022-08-03T00:17:20.286Z,15.04
2022-08-03T00:18:20.279Z,15.07
2022-08-03T00:19:20.298Z,14.98
2022-08-03T00:20:20.248Z,14.97
2022-08-03T00:21:20.243Z,14.97
2022-08-03T00:22:20.230Z,15.04
2022-08-03T00:23:20.217Z,15.00
2022-08-03T00:24:20.213Z,14.98
2022-08-03T00:25:20.199Z,15.01
2022-08-03T00:26:20.198Z,14.98
2022-08-03T00:27:20.197Z,14.94
2022-08-03T00:28:20.176Z,14.98
2022-08-03T00:29:20.157Z,14.93
2022-08-03T00:30:20.153Z,14.91
2022-08-03T00:31:39.724Z,14.86
2022-08-03T00:32:21.140Z,14.91
2022-08-03T00:33:20.135Z,14.97
2022-08-03T00:34:29.855Z,14.90
2022-08-03T00:35:36.758Z,14.86
2022-08-03T00:36:21.082Z,14.87
2022-08-03T00:37:20.070Z,14.90
2022-08-03T00:38:20.055Z,14.91
2022-08-03T00:39:20.054Z,14.90
2022-08-03T00:40:20.053Z,14.93
2022-08-03T00:41:20.069Z,14.98
2022-08-03T00:42:20.031Z,14.87
2022-08-03T00:43:20.005Z,14.86
2022-08-03T00:44:20.020Z,14.87
2022-08-03T00:45:19.983Z,14.87
2022-08-03T00:46:21.948Z,14.86
2022-08-03T00:47:19.961Z,14.87
2022-08-03T00:48:33.295Z,14.87
2022-08-03T00:49:20.999Z,14.91
2022-08-03T00:50:19.926Z,14.86
2022-08-03T00:51:19.952Z,14.87
2022-08-03T00:52:20.247Z,14.82
2022-08-03T00:53:19.998Z,14.79
2022-08-03T00:54:19.883Z,14.80
2022-08-03T00:55:19.885Z,14.80
2022-08-03T00:56:19.861Z,14.72
2022-08-03T00:57:19.880Z,14.85
2022-08-03T00:58:19.852Z,14.72
2022-08-03T00:59:19.846Z,14.71
2022-08-03T01:00:19.828Z,14.67
2022-08-03T01:01:19.842Z,14.71
2022-08-03T01:02:19.823Z,14.64
2022-08-03T01:03:19.798Z,14.69
2022-08-03T01:04:19.798Z,14.71
2022-08-03T01:05:19.777Z,14.64
2022-08-03T01:06:19.771Z,14.71
2022-08-03T01:07:19.745Z,14.64
2022-08-03T01:08:19.831Z,14.74
2022-08-03T01:09:19.719Z,14.71
2022-08-03T01:10:19.775Z,14.72
2022-08-03T01:11:19.703Z,14.74
2022-08-03T01:12:19.702Z,14.66
2022-08-03T01:14:00.326Z,14.71
2022-08-03T01:14:20.702Z,14.69
2022-08-03T01:15:19.668Z,14.78
2022-08-03T01:16:19.645Z,14.79
2022-08-03T01:17:19.645Z,14.66
2022-08-03T01:18:19.647Z,14.66
2022-08-03T01:19:19.633Z,14.82
2022-08-03T01:20:19.619Z,14.71
2022-08-03T01:21:19.617Z,14.59
2022-08-03T01:22:19.674Z,14.69
2022-08-03T01:23:19.579Z,14.67
2022-08-03T01:24:19.573Z,14.61
2022-08-03T01:25:19.577Z,14.64
2022-08-03T01:26:19.563Z,14.59
2022-08-03T01:27:19.531Z,14.63
2022-08-03T01:28:19.552Z,14.64
2022-08-03T01:29:19.509Z,14.57
2022-08-03T01:30:19.527Z,14.52
2022-08-03T01:31:19.487Z,14.34
2022-08-03T01:32:52.563Z,14.30
2022-08-03T01:33:20.481Z,14.29
2022-08-03T01:34:19.493Z,14.12
2022-08-03T01:35:19.866Z,14.29
2022-08-03T01:36:19.446Z,14.67
2022-08-03T01:37:19.450Z,14.69
2022-08-03T01:38:19.423Z,14.69
2022-08-03T01:39:19.402Z,14.71
2022-08-03T01:40:19.393Z,14.64
2022-08-03T01:41:19.376Z,14.66
2022-08-03T01:42:19.372Z,14.63
2022-08-03T01:43:58.933Z,14.57
2022-08-03T01:44:27.301Z,14.63
2022-08-03T01:45:20.339Z,14.63
2022-08-03T01:46:19.359Z,14.59
2022-08-03T01:47:19.320Z,14.64
2022-08-03T01:48:19.322Z,14.53
2022-08-03T01:49:19.395Z,14.48
2022-08-03T01:50:19.292Z,14.52
2022-08-03T01:51:19.275Z,14.49
2022-08-03T01:52:19.600Z,14.48
2022-08-03T01:53:19.265Z,14.44
2022-08-03T01:54:19.277Z,14.44
2022-08-03T01:55:19.254Z,14.44
2022-08-03T01:56:19.238Z,14.41
2022-08-03T01:57:19.204Z,14.53
2022-08-03T01:58:19.359Z,14.48
2022-08-03T01:59:19.191Z,14.52
2022-08-03T02:00:19.182Z,14.54
2022-08-03T02:01:19.237Z,14.54
2022-08-03T02:02:33.295Z,14.63
2022-08-03T02:03:20.160Z,14.64
2022-08-03T02:04:19.138Z,14.64
2022-08-03T02:05:19.124Z,14.63
2022-08-03T02:07:02.304Z,14.63
2022-08-03T02:07:20.102Z,14.60
2022-08-03T02:08:19.091Z,14.59
2022-08-03T02:09:19.201Z,14.64
2022-08-03T02:10:34.329Z,14.63
2022-08-03T02:11:20.128Z,14.53
2022-08-03T02:12:19.247Z,14.63
2022-08-03T02:13:19.036Z,14.57
2022-08-03T02:14:19.028Z,14.64
2022-08-03T02:15:19.014Z,14.63
2022-08-03T02:16:19.064Z,14.69
2022-08-03T02:17:19.007Z,14.57
2022-08-03T02:18:19.988Z,14.48
2022-08-03T02:19:18.975Z,14.54
2022-08-03T02:20:18.964Z,14.42
2022-08-03T02:21:55.836Z,14.48
2022-08-03T02:22:19.948Z,14.34
2022-08-03T02:23:18.934Z,14.46
2022-08-03T02:24:18.919Z,14.52
2022-08-03T02:25:18.905Z,14.46
2022-08-03T02:26:18.906Z,14.53
2022-08-03T02:27:18.884Z,14.52
2022-08-03T02:28:18.958Z,14.44
2022-08-03T02:29:18.887Z,14.46
2022-08-03T02:30:18.853Z,14.46
2022-08-03T02:31:18.839Z,14.49
2022-08-03T02:32:19.195Z,14.53
2022-08-03T02:33:18.833Z,14.44
2022-08-03T02:34:18.820Z,14.46
2022-08-03T02:35:18.815Z,14.48
2022-08-03T02:36:18.812Z,14.38
2022-08-03T02:37:18.803Z,14.42
2022-08-03T02:38:18.782Z,14.35
2022-08-03T02:39:18.747Z,14.36
2022-08-03T02:40:18.763Z,14.26
2022-08-03T02:41:18.732Z,14.29
2022-08-03T02:42:19.062Z,14.38
2022-08-03T02:43:18.756Z,14.38
2022-08-03T02:44:18.698Z,14.35
2022-08-03T02:45:18.691Z,14.26
2022-08-03T02:46:18.688Z,14.35
2022-08-03T02:47:18.677Z,14.38
2022-08-03T02:48:18.660Z,14.45
2022-08-03T02:49:40.728Z,14.35
2022-08-03T02:50:19.700Z,14.44
2022-08-03T02:51:18.628Z,14.42
2022-08-03T02:52:18.918Z,14.42
2022-08-03T02:53:18.620Z,14.45
2022-08-03T02:54:18.591Z,14.49
2022-08-03T02:55:18.601Z,14.48
2022-08-03T02:56:18.693Z,14.49
2022-08-03T02:57:18.552Z,14.48
2022-08-03T02:58:18.551Z,14.52
2022-08-03T02:59:18.543Z,14.54
2022-08-03T03:00:27.204Z,14.49
2022-08-03T03:01:19.611Z,14.45
2022-08-03T03:02:18.803Z,14.42
2022-08-03T03:03:18.501Z,14.34
2022-08-03T03:04:18.497Z,14.36
2022-08-03T03:05:55.338Z,14.34
2022-08-03T03:06:19.612Z,14.41
2022-08-03T03:07:18.463Z,14.44
2022-08-03T03:08:20.555Z,14.44
2022-08-03T03:09:19.437Z,14.36
2022-08-03T03:10:18.426Z,14.46
2022-08-03T03:11:18.437Z,14.35
2022-08-03T03:12:18.512Z,14.48
2022-08-03T03:13:18.395Z,14.46
2022-08-03T03:14:18.375Z,14.52
2022-08-03T03:15:19.373Z,14.36
2022-08-03T03:16:18.362Z,14.39
2022-08-03T03:17:18.363Z,14.45
2022-08-03T03:18:22.375Z,14.36
2022-08-03T03:19:18.331Z,14.42
2022-08-03T03:20:29.357Z,14.54
2022-08-03T03:21:19.356Z,14.44
2022-08-03T03:22:18.431Z,14.35
2022-08-03T03:23:18.292Z,14.36
2022-08-03T03:24:18.271Z,14.34
2022-08-03T03:25:18.273Z,14.35
2022-08-03T03:26:18.256Z,14.38
2022-08-03T03:27:18.247Z,14.45
2022-08-03T03:28:18.248Z,14.45
2022-08-03T03:29:18.220Z,14.41
2022-08-03T03:30:18.211Z,14.44
2022-08-03T03:31:18.197Z,14.36
2022-08-03T03:32:18.312Z,14.36
2022-08-03T03:33:18.167Z,14.38
2022-08-03T03:34:18.189Z,14.38
2022-08-03T03:35:18.157Z,14.38
2022-08-03T03:36:18.141Z,14.36
2022-08-03T03:37:18.191Z,14.38
2022-08-03T03:38:18.134Z,14.38
2022-08-03T03:39:18.138Z,14.38
2022-08-03T03:40:18.104Z,14.45
2022-08-03T03:41:18.103Z,14.52
2022-08-03T03:42:18.186Z,14.45
2022-08-03T03:43:18.060Z,14.56
2022-08-03T03:44:18.070Z,14.45
2022-08-03T03:45:18.046Z,14.54
2022-08-03T03:46:18.035Z,14.45
2022-08-03T03:47:18.026Z,14.46
2022-08-03T03:48:19.019Z,14.38
2022-08-03T03:49:18.027Z,14.38
2022-08-03T03:50:18.113Z,14.38
2022-08-03T03:51:17.978Z,14.35
2022-08-03T03:52:18.186Z,14.36
2022-08-03T03:53:17.994Z,14.38
2022-08-03T03:54:17.948Z,14.36
2022-08-03T03:55:17.942Z,14.41
2022-08-03T03:56:17.938Z,14.31
2022-08-03T03:57:17.932Z,14.36
2022-08-03T03:58:17.905Z,14.44
2022-08-03T03:59:17.933Z,14.34
2022-08-03T04:00:17.889Z,14.44
2022-08-03T04:01:17.936Z,14.34
2022-08-03T04:02:18.129Z,14.36
2022-08-03T04:03:17.869Z,14.31
2022-08-03T04:04:17.855Z,14.35
2022-08-03T04:05:17.861Z,14.34
2022-08-03T04:06:17.819Z,14.36
2022-08-03T04:07:17.806Z,14.35
2022-08-03T04:08:17.801Z,14.42
2022-08-03T04:09:17.785Z,14.44
2022-08-03T04:10:17.831Z,14.35
2022-08-03T04:11:17.782Z,14.36
2022-08-03T04:12:17.889Z,14.34
2022-08-03T04:13:17.743Z,14.44
2022-08-03T04:14:17.752Z,14.31
2022-08-03T04:15:17.725Z,14.41
2022-08-03T04:16:17.729Z,14.38
2022-08-03T04:17:17.714Z,14.30
2022-08-03T04:18:17.684Z,14.31
2022-08-03T04:19:22.942Z,14.39
2022-08-03T04:20:18.664Z,14.36
2022-08-03T04:21:17.667Z,14.36
2022-08-03T04:22:17.946Z,14.48
2022-08-03T04:23:17.693Z,14.54
2022-08-03T04:24:17.709Z,14.45
2022-08-03T04:25:17.614Z,14.53
2022-08-03T04:26:17.605Z,14.38
2022-08-03T04:27:17.595Z,14.44
2022-08-03T04:28:31.052Z,14.35
2022-08-03T04:29:18.572Z,14.36
2022-08-03T04:30:17.610Z,14.30
2022-08-03T04:31:17.546Z,14.41
2022-08-03T04:32:17.985Z,14.34
2022-08-03T04:33:17.541Z,14.36
2022-08-03T04:34:17.541Z,14.35
2022-08-03T04:35:17.518Z,14.38
2022-08-03T04:36:17.521Z,14.29
2022-08-03T04:37:17.533Z,14.27
2022-08-03T04:38:17.469Z,14.31
2022-08-03T04:39:17.463Z,14.27
2022-08-03T04:40:17.501Z,14.36
2022-08-03T04:41:18.439Z,14.41
2022-08-03T04:42:17.538Z,14.38
2022-08-03T04:43:17.427Z,14.26
2022-08-03T04:44:17.462Z,14.29
2022-08-03T04:45:17.508Z,14.26
2022-08-03T04:46:17.385Z,14.29
2022-08-03T04:47:17.372Z,14.38
2022-08-03T04:48:17.374Z,14.42
2022-08-03T04:49:17.421Z,14.36
2022-08-03T04:50:21.407Z,14.39
2022-08-03T04:51:17.364Z,14.42
2022-08-03T04:52:17.665Z,14.34
2022-08-03T04:53:17.311Z,14.34
2022-08-03T04:54:17.307Z,14.34
2022-08-03T04:55:17.306Z,14.36
2022-08-03T04:56:17.279Z,14.49
2022-08-03T04:57:22.401Z,14.53
2022-08-03T04:58:18.265Z,14.63
2022-08-03T04:59:17.243Z,14.74
2022-08-03T05:00:17.234Z,14.97
2022-08-03T05:01:17.269Z,15.56
2022-08-03T05:02:17.552Z,15.96
2022-08-03T05:03:23.505Z,16.34
2022-08-03T05:04:18.189Z,16.66
2022-08-03T05:05:17.182Z,16.99
2022-08-03T05:06:17.168Z,17.22
2022-08-03T05:07:19.508Z,17.55
2022-08-03T05:08:27.559Z,17.81
2022-08-03T05:09:46.064Z,18.02
2022-08-03T05:10:18.133Z,18.23
2022-08-03T05:11:17.152Z,18.42
2022-08-03T05:12:17.379Z,18.60
2022-08-03T05:13:17.091Z,18.72
2022-08-03T05:14:17.124Z,18.90
2022-08-03T05:15:18.085Z,19.06
2022-08-03T05:16:17.066Z,19.12
2022-08-03T05:17:17.053Z,19.28
2022-08-03T05:18:17.066Z,19.30
2022-08-03T05:19:17.041Z,19.43
2022-08-03T05:20:19.105Z,19.61
2022-08-03T05:21:17.047Z,19.52
2022-08-03T05:22:17.250Z,19.64
2022-08-03T05:23:16.988Z,19.86
2022-08-03T05:24:16.987Z,19.94
2022-08-03T05:25:19.324Z,20.17
2022-08-03T05:26:16.984Z,20.10
2022-08-03T05:27:16.958Z,19.86
2022-08-03T05:28:16.939Z,19.72
2022-08-03T05:29:16.934Z,19.85
2022-08-03T05:30:27.156Z,19.92
2022-08-03T05:31:17.903Z,19.98
2022-08-03T05:32:16.968Z,20.10
2022-08-03T05:33:16.886Z,20.02
2022-08-03T05:34:16.877Z,20.05
2022-08-03T05:35:57.860Z,20.27
2022-08-03T05:36:17.844Z,20.38
2022-08-03T05:37:16.835Z,20.35
2022-08-03T05:38:23.784Z,19.94
2022-08-03T05:39:17.840Z,19.34
2022-08-03T05:40:16.801Z,18.87
2022-08-03T05:41:22.766Z,19.20
2022-08-03T05:42:18.021Z,19.40
2022-08-03T05:43:16.772Z,19.39
2022-08-03T05:44:16.757Z,19.21
2022-08-03T05:45:16.753Z,18.99
2022-08-03T05:46:16.734Z,19.13
2022-08-03T05:47:16.744Z,19.05
2022-08-03T05:48:16.708Z,19.12
2022-08-03T05:49:16.759Z,19.52
2022-08-03T05:50:16.715Z,19.72
2022-08-03T05:51:16.683Z,20.01
2022-08-03T05:52:16.995Z,20.22
2022-08-03T05:53:16.674Z,20.31
2022-08-03T05:54:16.661Z,20.42
2022-08-03T05:55:16.716Z,20.58
2022-08-03T05:56:17.026Z,20.23
2022-08-03T05:57:16.657Z,19.61
2022-08-03T05:58:16.644Z,19.17
2022-08-03T05:59:37.707Z,19.42
2022-08-03T06:00:17.599Z,19.80
2022-08-03T06:01:16.840Z,19.92
2022-08-03T06:02:16.743Z,19.92
2022-08-03T06:03:16.552Z,19.94
2022-08-03T06:04:16.577Z,19.75
2022-08-03T06:05:16.530Z,19.72
2022-08-03T06:06:16.513Z,19.82
2022-08-03T06:07:16.511Z,20.25
2022-08-03T06:08:16.503Z,20.34
2022-08-03T06:09:16.497Z,20.27
2022-08-03T06:10:36.502Z,19.92
2022-08-03T06:11:17.469Z,19.94
2022-08-03T06:12:16.857Z,20.27
2022-08-03T06:13:16.443Z,20.35
2022-08-03T06:14:16.427Z,20.16
2022-08-03T06:15:16.469Z,19.95
2022-08-03T06:16:16.424Z,20.07
2022-08-03T06:17:16.484Z,19.87
2022-08-03T06:18:16.396Z,19.97
2022-08-03T06:19:16.379Z,20.13
2022-08-03T06:20:16.365Z,20.23
2022-08-03T06:21:16.476Z,20.26
2022-08-03T06:22:16.635Z,20.34
2022-08-03T06:23:18.056Z,20.58
2022-08-03T06:24:16.334Z,20.51
2022-08-03T06:25:16.318Z,20.30
2022-08-03T06:26:16.305Z,20.34
2022-08-03T06:27:16.322Z,20.56
2022-08-03T06:28:51.253Z,20.56
2022-08-03T06:29:17.301Z,20.57
2022-08-03T06:30:20.730Z,20.37
2022-08-03T06:31:16.370Z,20.53
2022-08-03T06:32:16.235Z,20.26
2022-08-03T06:33:16.234Z,20.48
2022-08-03T06:34:33.510Z,20.63
2022-08-03T06:35:17.217Z,20.64
2022-08-03T06:36:16.196Z,20.88
2022-08-03T06:37:16.198Z,20.63
2022-08-03T06:38:16.178Z,20.63
2022-08-03T06:39:16.162Z,20.78
2022-08-03T06:40:16.159Z,21.11
2022-08-03T06:41:17.147Z,21.16
2022-08-03T06:42:16.397Z,20.87
2022-08-03T06:43:16.155Z,20.57
2022-08-03T06:44:16.131Z,20.60
2022-08-03T06:45:16.102Z,20.68
2022-08-03T06:46:16.123Z,20.87
2022-08-03T06:47:16.084Z,20.94
2022-08-03T06:48:16.087Z,20.75
2022-08-03T06:49:16.180Z,20.71
2022-08-03T06:50:17.875Z,20.75
2022-08-03T06:51:16.035Z,20.79
2022-08-03T06:52:38.059Z,21.06
2022-08-03T06:53:19.808Z,21.15
2022-08-03T06:54:16.001Z,21.16
2022-08-03T06:55:16.007Z,21.22
2022-08-03T06:56:15.982Z,21.31
2022-08-03T06:57:15.976Z,21.38
2022-08-03T06:58:15.974Z,21.13
2022-08-03T07:00:10.196Z,21.31
2022-08-03T07:00:16.938Z,21.59
2022-08-03T07:01:15.986Z,21.19
2022-08-03T07:02:19.023Z,21.28
2022-08-03T07:03:15.906Z,20.98
2022-08-03T07:04:16.003Z,21.08
2022-08-03T07:05:15.887Z,21.01
2022-08-03T07:06:15.882Z,21.09
2022-08-03T07:07:15.877Z,21.24
2022-08-03T07:08:15.886Z,21.56
2022-08-03T07:09:15.849Z,21.75
2022-08-03T07:10:15.845Z,21.94
2022-08-03T07:11:15.825Z,21.91
2022-08-03T07:12:16.131Z,21.49
2022-08-03T07:13:15.829Z,21.66
2022-08-03T07:14:15.801Z,21.85
2022-08-03T07:15:20.131Z,21.79
2022-08-03T07:16:15.768Z,21.79
2022-08-03T07:17:15.756Z,21.99
2022-08-03T07:18:15.745Z,22.12
2022-08-03T07:19:15.739Z,22.08
2022-08-03T07:20:15.758Z,21.99
2022-08-03T07:21:15.744Z,22.17
2022-08-03T07:22:15.897Z,22.45
2022-08-03T07:23:19.044Z,22.02
2022-08-03T07:24:15.679Z,21.48
2022-08-03T07:25:15.673Z,21.31
2022-08-03T07:26:15.653Z,21.38
2022-08-03T07:27:15.679Z,21.63
2022-08-03T07:28:15.636Z,21.75
2022-08-03T07:29:15.748Z,21.38
2022-08-03T07:30:15.615Z,21.33
2022-08-03T07:31:15.602Z,21.67
2022-08-03T07:32:15.827Z,21.73
2022-08-03T07:33:15.587Z,22.05
2022-08-03T07:34:15.588Z,22.11
2022-08-03T07:35:15.553Z,22.05
2022-08-03T07:36:16.544Z,22.05
2022-08-03T07:37:15.538Z,22.21
2022-08-03T07:38:15.529Z,21.94
2022-08-03T07:39:17.646Z,21.98
2022-08-03T07:40:15.521Z,22.11
2022-08-03T07:41:15.519Z,22.15
2022-08-03T07:42:15.804Z,21.71
2022-08-03T07:43:15.483Z,21.74
2022-08-03T07:44:15.459Z,21.67
2022-08-03T07:45:16.866Z,21.83
2022-08-03T07:46:15.442Z,22.02
2022-08-03T07:47:16.567Z,21.89
2022-08-03T07:48:16.425Z,21.98
2022-08-03T07:49:15.447Z,22.24
2022-08-03T07:50:15.426Z,22.12
2022-08-03T07:51:15.372Z,21.93
2022-08-03T07:52:15.605Z,21.89
2022-08-03T07:53:15.381Z,21.91
2022-08-03T07:54:15.357Z,21.90
2022-08-03T07:55:15.333Z,21.93
2022-08-03T07:56:15.330Z,21.90
2022-08-03T07:57:15.309Z,21.89
2022-08-03T07:58:16.466Z,21.67
2022-08-03T07:59:15.285Z,21.74
2022-08-03T08:00:15.295Z,21.93
2022-08-03T08:01:15.358Z,22.14
2022-08-03T08:02:15.530Z,22.06
2022-08-03T08:03:15.237Z,22.06
2022-08-03T08:04:15.387Z,22.26
2022-08-03T08:05:15.220Z,22.29
2022-08-03T08:06:15.286Z,22.08
2022-08-03T08:07:15.201Z,21.93
2022-08-03T08:08:15.193Z,21.81
2022-08-03T08:09:15.173Z,22.08
2022-08-03T08:10:15.182Z,22.26
2022-08-03T08:11:15.150Z,22.69
2022-08-03T08:12:15.970Z,22.84
2022-08-03T08:13:15.133Z,22.31
2022-08-03T08:14:15.123Z,22.20
2022-08-03T08:15:15.111Z,22.33
2022-08-03T08:16:15.153Z,22.56
2022-08-03T08:17:15.089Z,22.82
2022-08-03T08:18:15.097Z,22.76
2022-08-03T08:19:15.081Z,22.78
2022-08-03T08:20:15.054Z,23.11
2022-08-03T08:21:16.197Z,23.47
2022-08-03T08:22:15.391Z,23.47
2022-08-03T08:23:41.999Z,23.49
2022-08-03T08:24:18.301Z,23.57
2022-08-03T08:25:14.998Z,23.56
2022-08-03T08:26:14.989Z,23.59
2022-08-03T08:27:14.987Z,23.69
2022-08-03T08:28:30.666Z,23.47
2022-08-03T08:29:15.976Z,23.12
2022-08-03T08:30:19.156Z,23.01
2022-08-03T08:31:14.953Z,23.42
2022-08-03T08:32:15.262Z,23.21
2022-08-03T08:33:22.730Z,22.82
2022-08-03T08:34:15.901Z,22.93
2022-08-03T08:35:14.919Z,23.00
2022-08-03T08:36:15.567Z,23.14
2022-08-03T08:37:14.874Z,23.60
2022-08-03T08:38:14.861Z,23.72
2022-08-03T08:39:14.848Z,23.52
2022-08-03T08:40:14.852Z,23.44
2022-08-03T08:41:14.840Z,23.47
2022-08-03T08:42:14.928Z,23.67
2022-08-03T08:43:14.805Z,23.64
2022-08-03T08:44:14.800Z,23.42
2022-08-03T08:45:14.789Z,23.03
2022-08-03T08:46:22.818Z,22.97
2022-08-03T08:47:15.778Z,23.19
2022-08-03T08:48:14.764Z,23.39
2022-08-03T08:49:14.827Z,23.54
2022-08-03T08:50:27.141Z,23.59
2022-08-03T08:51:15.716Z,23.84
2022-08-03T08:52:24.818Z,23.62
2022-08-03T08:53:17.640Z,23.62
2022-08-03T08:54:14.717Z,23.78
2022-08-03T08:55:14.678Z,23.59
2022-08-03T08:56:14.666Z,24.06
2022-08-03T08:57:33.524Z,24.34
2022-08-03T08:58:20.832Z,24.23
2022-08-03T08:59:15.749Z,23.96
2022-08-03T09:00:14.634Z,24.11
2022-08-03T09:01:14.676Z,24.15
2022-08-03T09:02:14.705Z,23.87
2022-08-03T09:03:14.600Z,24.08
2022-08-03T09:04:15.580Z,24.04
2022-08-03T09:05:14.692Z,23.79
2022-08-03T09:06:14.575Z,23.59
2022-08-03T09:07:19.765Z,24.09
2022-08-03T09:08:15.587Z,24.56
2022-08-03T09:10:00.302Z,24.79
2022-08-03T09:10:15.517Z,25.04
2022-08-03T09:11:14.519Z,25.07
2022-08-03T09:12:37.590Z,25.24
2022-08-03T09:13:15.480Z,25.31
2022-08-03T09:14:36.562Z,25.09
2022-08-03T09:15:17.287Z,25.20
2022-08-03T09:16:14.455Z,25.17
2022-08-03T09:17:17.103Z,25.16
2022-08-03T09:18:14.432Z,25.53
2022-08-03T09:19:14.500Z,25.59
2022-08-03T09:20:14.412Z,25.51
2022-08-03T09:21:30.138Z,25.79
2022-08-03T09:22:15.387Z,25.96
2022-08-03T09:23:51.716Z,26.01
2022-08-03T09:24:31.109Z,25.71
2022-08-03T09:25:24.396Z,25.44
2022-08-03T09:26:15.364Z,25.66
2022-08-03T09:27:14.380Z,26.12
2022-08-03T09:28:14.331Z,26.31
2022-08-03T09:29:15.641Z,26.16
2022-08-03T09:30:33.559Z,26.13
2022-08-03T09:31:15.292Z,26.09
2022-08-03T09:32:14.967Z,25.67
2022-08-03T09:33:14.295Z,25.66
2022-08-03T09:34:14.298Z,25.71
2022-08-03T09:35:14.718Z,25.79
2022-08-03T09:36:14.238Z,25.86
2022-08-03T09:37:14.337Z,26.16
2022-08-03T09:38:14.476Z,26.44
2022-08-03T09:39:14.227Z,26.00
2022-08-03T09:40:14.237Z,25.90
2022-08-03T09:41:14.217Z,25.89
2022-08-03T09:42:14.658Z,25.94
2022-08-03T09:43:14.187Z,25.96
2022-08-03T09:44:24.663Z,26.01
2022-08-03T09:45:15.167Z,26.17
2022-08-03T09:46:14.131Z,26.41
2022-08-03T09:47:14.121Z,26.27
2022-08-03T09:48:14.108Z,26.36
2022-08-03T09:49:14.190Z,26.51
2022-08-03T09:50:14.138Z,26.39
2022-08-03T09:51:33.167Z,26.16
2022-08-03T09:52:39.377Z,25.35
2022-08-03T09:53:15.060Z,25.19
2022-08-03T09:54:20.356Z,25.30
2022-08-03T09:56:32.576Z,25.38
2022-08-03T09:56:33.264Z,25.31
2022-08-03T09:57:15.018Z,25.14
2022-08-03T09:58:14.015Z,24.84
2022-08-03T09:59:14.020Z,24.75
2022-08-03T10:00:13.988Z,25.19
2022-08-03T10:01:23.927Z,25.66
2022-08-03T10:02:14.964Z,26.00
2022-08-03T10:03:14.006Z,26.13
2022-08-03T10:04:13.952Z,26.32
2022-08-03T10:05:19.687Z,26.44
2022-08-03T10:06:14.921Z,26.53
2022-08-03T10:07:13.912Z,26.44
2022-08-03T10:08:13.895Z,26.31
2022-08-03T10:09:13.899Z,26.47
2022-08-03T10:10:32.086Z,26.42
2022-08-03T10:11:14.882Z,26.06
2022-08-03T10:12:13.859Z,26.27
2022-08-03T10:13:13.847Z,26.51
2022-08-03T10:14:13.837Z,26.84
2022-08-03T10:16:21.197Z,26.42
2022-08-03T10:16:21.663Z,26.56
2022-08-03T10:17:14.946Z,26.75
2022-08-03T10:18:13.803Z,26.90
2022-08-03T10:19:13.814Z,26.75
2022-08-03T10:20:13.787Z,26.68
2022-08-03T10:21:13.757Z,26.91
2022-08-03T10:22:13.746Z,27.20
2022-08-03T10:23:13.741Z,27.18
2022-08-03T10:24:13.733Z,27.11
2022-08-03T10:25:13.759Z,27.05
2022-08-03T10:26:13.713Z,27.06
2022-08-03T10:27:13.760Z,27.24
2022-08-03T10:28:13.680Z,27.34
2022-08-03T10:29:13.671Z,27.18
2022-08-03T10:30:13.669Z,27.18
2022-08-03T10:31:13.657Z,27.11
2022-08-03T10:32:13.664Z,26.72
2022-08-03T10:33:51.643Z,26.39
2022-08-03T10:34:14.619Z,26.56
2022-08-03T10:35:20.876Z,26.44
2022-08-03T10:36:14.594Z,26.44
2022-08-03T10:37:13.620Z,26.29
2022-08-03T10:38:13.599Z,26.54
2022-08-03T10:39:16.064Z,26.34
2022-08-03T10:40:16.169Z,26.41
2022-08-03T10:41:14.544Z,26.42
2022-08-03T10:42:14.765Z,26.46
2022-08-03T10:43:13.561Z,26.75
2022-08-03T10:44:13.515Z,27.06
2022-08-03T10:45:13.582Z,27.09
2022-08-03T10:46:13.492Z,27.23
2022-08-03T10:47:13.654Z,27.16
2022-08-03T10:48:13.509Z,27.53
2022-08-03T10:49:13.491Z,27.71
2022-08-03T10:50:13.471Z,27.71
2022-08-03T10:51:13.443Z,27.61
2022-08-03T10:52:31.899Z,27.46
2022-08-03T10:53:16.581Z,27.25
2022-08-03T10:54:13.401Z,27.35
2022-08-03T10:55:13.467Z,27.34
2022-08-03T10:56:13.386Z,27.40
2022-08-03T10:57:14.691Z,27.55
2022-08-03T10:58:13.359Z,27.71
2022-08-03T10:59:22.946Z,27.74
2022-08-03T11:00:14.346Z,27.87
2022-08-03T11:01:13.390Z,27.95
2022-08-03T11:02:13.328Z,27.95
2022-08-03T11:03:13.317Z,27.91
2022-08-03T11:04:16.880Z,27.83
2022-08-03T11:05:13.293Z,27.87
2022-08-03T11:06:13.304Z,27.90
2022-08-03T11:07:13.288Z,27.74
2022-08-03T11:08:13.254Z,27.71
2022-08-03T11:09:13.395Z,27.59
2022-08-03T11:10:13.262Z,27.74
2022-08-03T11:11:13.221Z,27.96
2022-08-03T11:12:13.244Z,27.93
2022-08-03T11:13:13.237Z,28.23
2022-08-03T11:14:13.198Z,28.33
2022-08-03T11:15:13.200Z,28.27
2022-08-03T11:16:18.341Z,28.39
2022-08-03T11:17:14.676Z,28.35
2022-08-03T11:18:13.179Z,28.17
2022-08-03T11:19:13.177Z,28.15
2022-08-03T11:20:13.129Z,28.32
2022-08-03T11:21:13.129Z,28.43
2022-08-03T11:22:13.105Z,28.60
2022-08-03T11:23:13.144Z,28.08
2022-08-03T11:24:13.137Z,28.03
2022-08-03T11:25:54.385Z,28.01
2022-08-03T11:26:14.076Z,28.15
2022-08-03T11:27:13.066Z,28.18
2022-08-03T11:28:13.063Z,27.86
2022-08-03T11:29:13.050Z,27.49
2022-08-03T11:30:13.058Z,27.65
2022-08-03T11:31:32.708Z,27.58
2022-08-03T11:32:19.226Z,28.09
2022-08-03T11:33:13.998Z,28.17
2022-08-03T11:34:12.988Z,28.35
2022-08-03T11:35:12.995Z,28.48
2022-08-03T11:36:12.987Z,28.72
2022-08-03T11:37:13.957Z,28.70
2022-08-03T11:38:12.957Z,28.77
2022-08-03T11:39:12.924Z,28.67
2022-08-03T11:40:12.917Z,28.43
2022-08-03T11:41:12.916Z,28.45
2022-08-03T11:42:12.907Z,28.33
2022-08-03T11:43:12.895Z,28.36
2022-08-03T11:44:12.870Z,28.21
2022-08-03T11:45:12.860Z,28.32
2022-08-03T11:46:12.907Z,28.57
2022-08-03T11:47:12.893Z,28.55
2022-08-03T11:48:12.827Z,28.43
2022-08-03T11:49:12.868Z,28.48
2022-08-03T11:50:12.805Z,28.62
2022-08-03T11:51:12.799Z,29.07
2022-08-03T11:52:12.794Z,28.91
2022-08-03T11:53:12.786Z,28.85
2022-08-03T11:54:12.790Z,28.94
2022-08-03T11:55:12.780Z,29.07
2022-08-03T11:56:13.218Z,28.74
2022-08-03T11:57:12.764Z,28.18
2022-08-03T11:59:10.698Z,28.03
2022-08-03T11:59:20.622Z,28.24
2022-08-03T12:00:13.803Z,28.30
2022-08-03T12:01:12.716Z,28.28
2022-08-03T12:02:12.690Z,28.03
2022-08-03T12:03:12.789Z,28.21
2022-08-03T12:04:12.666Z,28.61
2022-08-03T12:05:12.651Z,28.60
2022-08-03T12:06:12.651Z,28.52
2022-08-03T12:07:12.632Z,28.65
2022-08-03T12:08:13.621Z,28.85
2022-08-03T12:09:12.818Z,28.94
2022-08-03T12:10:12.617Z,28.97
2022-08-03T12:11:12.590Z,28.87
2022-08-03T12:12:12.586Z,28.73
2022-08-03T12:14:45.593Z,28.98
2022-08-03T12:14:49.496Z,28.95
2022-08-03T12:15:13.583Z,28.95
2022-08-03T12:16:12.543Z,29.08
2022-08-03T12:17:12.582Z,29.07
2022-08-03T12:18:12.524Z,29.00
2022-08-03T12:19:12.518Z,29.36
2022-08-03T12:20:12.514Z,29.48
2022-08-03T12:21:12.510Z,29.36
2022-08-03T12:22:12.497Z,29.41
2022-08-03T12:23:12.485Z,29.57
2022-08-03T12:24:12.468Z,29.39
2022-08-03T12:25:12.457Z,29.48
2022-08-03T12:26:12.450Z,29.37
2022-08-03T12:27:12.521Z,29.15
2022-08-03T12:28:30.453Z,29.42
2022-08-03T12:29:13.412Z,29.47
2022-08-03T12:30:12.402Z,29.51
2022-08-03T12:31:12.386Z,29.64
2022-08-03T12:32:12.399Z,29.78
2022-08-03T12:33:12.374Z,29.79
2022-08-03T12:34:12.356Z,29.48
2022-08-03T12:35:12.363Z,29.15
2022-08-03T12:36:12.332Z,29.11
2022-08-03T12:37:19.186Z,29.14
2022-08-03T12:38:13.367Z,29.41
2022-08-03T12:39:12.324Z,29.27
2022-08-03T12:40:15.121Z,28.87
2022-08-03T12:41:13.290Z,28.87
2022-08-03T12:42:12.295Z,29.11
2022-08-03T12:43:12.281Z,29.23
2022-08-03T12:44:12.299Z,29.23
2022-08-03T12:45:12.276Z,29.15
2022-08-03T12:46:12.232Z,29.23
2022-08-03T12:47:12.332Z,29.17
2022-08-03T12:48:12.216Z,29.41
2022-08-03T12:49:12.277Z,29.29
2022-08-03T12:50:12.193Z,29.25
2022-08-03T12:51:12.184Z,29.17
2022-08-03T12:52:12.201Z,29.23